sensor_id;sensor_type;location;lat;lon;timestamp;temperature;humidity
19847;DHT22;10084;50.518;8.588;2024-02-21T00:00:20;9.20;86.70
19847;DHT22;10084;50.518;8.588;2024-02-21T00:02:46;9.20;86.70
19847;DHT22;10084;50.518;8.588;2024-02-21T00:05:11;9.20;86.80
19847;DHT22;10084;50.518;8.588;2024-02-21T00:07:37;9.10;86.80
19847;DHT22;10084;50.518;8.588;2024-02-21T00:10:03;9.10;86.80
19847;DHT22;10084;50.518;8.588;2024-02-21T00:12:28;9.20;86.90
19847;DHT22;10084;50.518;8.588;2024-02-21T00:14:54;9.10;87.00
19847;DHT22;10084;50.518;8.588;2024-02-21T00:17:20;9.10;87.00
19847;DHT22;10084;50.518;8.588;2024-02-21T00:19:45;9.10;86.90
19847;DHT22;10084;50.518;8.588;2024-02-21T00:22:11;9.20;87.00
19847;DHT22;10084;50.518;8.588;2024-02-21T00:24:37;9.20;87.00
19847;DHT22;10084;50.518;8.588;2024-02-21T00:27:02;9.20;87.10
19847;DHT22;10084;50.518;8.588;2024-02-21T00:29:28;9.20;87.10
19847;DHT22;10084;50.518;8.588;2024-02-21T00:31:54;9.20;87.10
19847;DHT22;10084;50.518;8.588;2024-02-21T00:34:20;9.20;87.10
19847;DHT22;10084;50.518;8.588;2024-02-21T00:36:45;9.20;87.10
19847;DHT22;10084;50.518;8.588;2024-02-21T00:39:11;9.20;87.10
19847;DHT22;10084;50.518;8.588;2024-02-21T00:41:37;9.20;87.00
19847;DHT22;10084;50.518;8.588;2024-02-21T00:44:02;9.20;87.10
19847;DHT22;10084;50.518;8.588;2024-02-21T00:46:31;9.20;87.10
19847;DHT22;10084;50.518;8.588;2024-02-21T00:48:56;9.20;87.20
19847;DHT22;10084;50.518;8.588;2024-02-21T00:51:22;9.20;87.10
19847;DHT22;10084;50.518;8.588;2024-02-21T00:53:48;9.20;87.10
19847;DHT22;10084;50.518;8.588;2024-02-21T00:56:14;9.20;87.20
19847;DHT22;10084;50.518;8.588;2024-02-21T00:58:39;9.20;87.10
19847;DHT22;10084;50.518;8.588;2024-02-21T01:01:05;9.20;87.10
19847;DHT22;10084;50.518;8.588;2024-02-21T01:03:31;9.30;87.20
19847;DHT22;10084;50.518;8.588;2024-02-21T01:05:56;9.30;87.10
19847;DHT22;10084;50.518;8.588;2024-02-21T01:08:22;9.30;87.10
19847;DHT22;10084;50.518;8.588;2024-02-21T01:10:48;9.30;87.00
19847;DHT22;10084;50.518;8.588;2024-02-21T01:13:13;9.30;87.00
19847;DHT22;10084;50.518;8.588;2024-02-21T01:15:39;9.20;87.00
19847;DHT22;10084;50.518;8.588;2024-02-21T01:18:05;9.20;87.20
19847;DHT22;10084;50.518;8.588;2024-02-21T01:20:32;9.20;87.30
19847;DHT22;10084;50.518;8.588;2024-02-21T01:22:57;9.20;87.30
19847;DHT22;10084;50.518;8.588;2024-02-21T01:25:23;9.20;87.30
19847;DHT22;10084;50.518;8.588;2024-02-21T01:27:49;9.10;87.40
19847;DHT22;10084;50.518;8.588;2024-02-21T01:30:14;9.10;87.40
19847;DHT22;10084;50.518;8.588;2024-02-21T01:32:40;9.00;87.50
19847;DHT22;10084;50.518;8.588;2024-02-21T01:35:07;9.00;87.50
19847;DHT22;10084;50.518;8.588;2024-02-21T01:37:33;9.00;87.50
19847;DHT22;10084;50.518;8.588;2024-02-21T01:39:58;9.00;87.60
19847;DHT22;10084;50.518;8.588;2024-02-21T01:42:25;9.00;87.60
19847;DHT22;10084;50.518;8.588;2024-02-21T01:44:50;9.00;87.70
19847;DHT22;10084;50.518;8.588;2024-02-21T01:47:16;9.00;87.60
19847;DHT22;10084;50.518;8.588;2024-02-21T01:49:43;9.00;87.60
19847;DHT22;10084;50.518;8.588;2024-02-21T01:52:09;9.00;87.60
19847;DHT22;10084;50.518;8.588;2024-02-21T01:54:35;9.00;87.70
19847;DHT22;10084;50.518;8.588;2024-02-21T01:57:01;9.00;87.70
19847;DHT22;10084;50.518;8.588;2024-02-21T01:59:27;9.00;87.60
19847;DHT22;10084;50.518;8.588;2024-02-21T02:01:55;9.00;87.70
19847;DHT22;10084;50.518;8.588;2024-02-21T02:04:22;9.00;87.70
19847;DHT22;10084;50.518;8.588;2024-02-21T02:06:49;9.00;87.70
19847;DHT22;10084;50.518;8.588;2024-02-21T02:09:16;9.00;87.60
19847;DHT22;10084;50.518;8.588;2024-02-21T02:11:43;9.10;87.80
19847;DHT22;10084;50.518;8.588;2024-02-21T02:14:08;9.00;87.80
19847;DHT22;10084;50.518;8.588;2024-02-21T02:16:34;9.00;87.70
19847;DHT22;10084;50.518;8.588;2024-02-21T02:19:00;9.00;87.70
19847;DHT22;10084;50.518;8.588;2024-02-21T02:21:44;9.00;87.70
19847;DHT22;10084;50.518;8.588;2024-02-21T02:24:10;9.00;88.50
19847;DHT22;10084;50.518;8.588;2024-02-21T02:26:37;9.00;87.90
19847;DHT22;10084;50.518;8.588;2024-02-21T02:29:02;9.00;87.90
19847;DHT22;10084;50.518;8.588;2024-02-21T02:31:28;9.00;87.80
19847;DHT22;10084;50.518;8.588;2024-02-21T02:33:54;9.00;87.90
19847;DHT22;10084;50.518;8.588;2024-02-21T02:36:19;9.00;87.90
19847;DHT22;10084;50.518;8.588;2024-02-21T02:38:45;9.00;87.90
19847;DHT22;10084;50.518;8.588;2024-02-21T02:41:11;9.00;88.00
19847;DHT22;10084;50.518;8.588;2024-02-21T02:43:37;9.00;87.80
19847;DHT22;10084;50.518;8.588;2024-02-21T02:46:03;9.00;87.80
19847;DHT22;10084;50.518;8.588;2024-02-21T02:48:29;9.10;87.90
19847;DHT22;10084;50.518;8.588;2024-02-21T02:50:55;9.10;87.90
19847;DHT22;10084;50.518;8.588;2024-02-21T02:53:21;9.10;87.80
19847;DHT22;10084;50.518;8.588;2024-02-21T02:55:46;9.10;87.80
19847;DHT22;10084;50.518;8.588;2024-02-21T02:58:12;9.10;87.70
19847;DHT22;10084;50.518;8.588;2024-02-21T03:00:38;9.10;87.70
19847;DHT22;10084;50.518;8.588;2024-02-21T03:03:04;9.10;87.90
19847;DHT22;10084;50.518;8.588;2024-02-21T03:05:30;9.10;87.80
19847;DHT22;10084;50.518;8.588;2024-02-21T03:07:56;9.10;87.80
19847;DHT22;10084;50.518;8.588;2024-02-21T03:10:21;9.10;87.80
19847;DHT22;10084;50.518;8.588;2024-02-21T03:12:47;9.10;87.80
19847;DHT22;10084;50.518;8.588;2024-02-21T03:15:14;9.10;87.80
19847;DHT22;10084;50.518;8.588;2024-02-21T03:17:40;9.10;87.90
19847;DHT22;10084;50.518;8.588;2024-02-21T03:20:06;9.10;87.90
19847;DHT22;10084;50.518;8.588;2024-02-21T03:22:36;9.10;87.90
19847;DHT22;10084;50.518;8.588;2024-02-21T03:25:01;9.10;87.90
19847;DHT22;10084;50.518;8.588;2024-02-21T03:27:27;9.10;87.90
19847;DHT22;10084;50.518;8.588;2024-02-21T03:29:53;9.00;87.90
19847;DHT22;10084;50.518;8.588;2024-02-21T03:32:19;9.00;87.80
19847;DHT22;10084;50.518;8.588;2024-02-21T03:34:44;9.00;87.70
19847;DHT22;10084;50.518;8.588;2024-02-21T03:37:10;9.00;87.80
19847;DHT22;10084;50.518;8.588;2024-02-21T03:39:37;9.00;87.80
19847;DHT22;10084;50.518;8.588;2024-02-21T03:42:03;9.00;87.90
19847;DHT22;10084;50.518;8.588;2024-02-21T03:44:30;9.00;87.90
19847;DHT22;10084;50.518;8.588;2024-02-21T03:46:57;9.00;87.90
19847;DHT22;10084;50.518;8.588;2024-02-21T03:49:22;9.00;87.90
19847;DHT22;10084;50.518;8.588;2024-02-21T03:51:48;9.00;88.00
19847;DHT22;10084;50.518;8.588;2024-02-21T03:54:14;9.00;88.00
19847;DHT22;10084;50.518;8.588;2024-02-21T03:56:39;9.00;87.90
19847;DHT22;10084;50.518;8.588;2024-02-21T03:59:08;9.00;87.80
19847;DHT22;10084;50.518;8.588;2024-02-21T04:01:34;9.00;87.90
19847;DHT22;10084;50.518;8.588;2024-02-21T04:04:01;9.00;88.00
19847;DHT22;10084;50.518;8.588;2024-02-21T04:06:27;9.00;88.10
19847;DHT22;10084;50.518;8.588;2024-02-21T04:08:53;9.00;88.00
19847;DHT22;10084;50.518;8.588;2024-02-21T04:11:19;9.00;88.10
19847;DHT22;10084;50.518;8.588;2024-02-21T04:13:45;9.00;88.10
19847;DHT22;10084;50.518;8.588;2024-02-21T04:16:14;9.00;88.10
19847;DHT22;10084;50.518;8.588;2024-02-21T04:18:40;9.00;88.00
19847;DHT22;10084;50.518;8.588;2024-02-21T04:21:06;9.00;88.00
19847;DHT22;10084;50.518;8.588;2024-02-21T04:23:31;9.00;87.90
19847;DHT22;10084;50.518;8.588;2024-02-21T04:25:57;9.00;87.90
19847;DHT22;10084;50.518;8.588;2024-02-21T04:28:23;9.00;88.00
19847;DHT22;10084;50.518;8.588;2024-02-21T04:30:48;8.90;88.00
19847;DHT22;10084;50.518;8.588;2024-02-21T04:33:14;8.90;88.00
19847;DHT22;10084;50.518;8.588;2024-02-21T04:35:40;8.90;88.10
19847;DHT22;10084;50.518;8.588;2024-02-21T04:38:05;8.90;88.00
19847;DHT22;10084;50.518;8.588;2024-02-21T04:40:32;8.90;88.00
19847;DHT22;10084;50.518;8.588;2024-02-21T04:42:57;8.90;88.10
19847;DHT22;10084;50.518;8.588;2024-02-21T04:45:23;9.00;88.10
19847;DHT22;10084;50.518;8.588;2024-02-21T04:47:49;9.00;88.20
19847;DHT22;10084;50.518;8.588;2024-02-21T04:50:15;9.00;88.20
19847;DHT22;10084;50.518;8.588;2024-02-21T04:52:40;9.00;88.20
19847;DHT22;10084;50.518;8.588;2024-02-21T04:55:06;9.00;88.20
19847;DHT22;10084;50.518;8.588;2024-02-21T04:57:32;9.00;88.10
19847;DHT22;10084;50.518;8.588;2024-02-21T04:59:58;9.00;88.20
19847;DHT22;10084;50.518;8.588;2024-02-21T05:02:24;9.00;88.20
19847;DHT22;10084;50.518;8.588;2024-02-21T05:04:50;9.00;89.00
19847;DHT22;10084;50.518;8.588;2024-02-21T05:07:16;9.00;88.30
19847;DHT22;10084;50.518;8.588;2024-02-21T05:09:42;9.00;88.40
19847;DHT22;10084;50.518;8.588;2024-02-21T05:12:08;9.00;88.50
19847;DHT22;10084;50.518;8.588;2024-02-21T05:14:34;8.90;88.40
19847;DHT22;10084;50.518;8.588;2024-02-21T05:17:00;8.90;88.50
19847;DHT22;10084;50.518;8.588;2024-02-21T05:19:25;8.90;88.40
19847;DHT22;10084;50.518;8.588;2024-02-21T05:21:51;8.90;88.40
19847;DHT22;10084;50.518;8.588;2024-02-21T05:24:17;8.90;88.40
19847;DHT22;10084;50.518;8.588;2024-02-21T05:26:42;8.90;88.50
19847;DHT22;10084;50.518;8.588;2024-02-21T05:29:08;8.90;88.60
19847;DHT22;10084;50.518;8.588;2024-02-21T05:32:03;8.90;88.50
19847;DHT22;10084;50.518;8.588;2024-02-21T05:34:29;8.90;88.60
19847;DHT22;10084;50.518;8.588;2024-02-21T05:36:55;8.90;88.60
19847;DHT22;10084;50.518;8.588;2024-02-21T05:39:21;8.80;88.50
19847;DHT22;10084;50.518;8.588;2024-02-21T05:41:49;8.80;88.50
19847;DHT22;10084;50.518;8.588;2024-02-21T05:44:15;8.80;88.60
19847;DHT22;10084;50.518;8.588;2024-02-21T05:46:41;8.80;88.50
19847;DHT22;10084;50.518;8.588;2024-02-21T05:49:06;8.80;88.60
19847;DHT22;10084;50.518;8.588;2024-02-21T05:51:33;8.80;88.70
19847;DHT22;10084;50.518;8.588;2024-02-21T05:53:59;8.80;88.80
19847;DHT22;10084;50.518;8.588;2024-02-21T05:56:25;8.80;88.70
19847;DHT22;10084;50.518;8.588;2024-02-21T05:58:50;8.80;88.70
19847;DHT22;10084;50.518;8.588;2024-02-21T06:01:16;8.80;88.70
19847;DHT22;10084;50.518;8.588;2024-02-21T06:03:43;8.80;88.70
19847;DHT22;10084;50.518;8.588;2024-02-21T06:06:09;8.90;88.70
19847;DHT22;10084;50.518;8.588;2024-02-21T06:08:34;8.90;88.50
19847;DHT22;10084;50.518;8.588;2024-02-21T06:11:00;8.90;88.40
19847;DHT22;10084;50.518;8.588;2024-02-21T06:13:26;8.90;88.30
19847;DHT22;10084;50.518;8.588;2024-02-21T06:15:52;8.90;88.90
19847;DHT22;10084;50.518;8.588;2024-02-21T06:18:18;8.90;88.80
19847;DHT22;10084;50.518;8.588;2024-02-21T06:20:44;8.90;88.30
19847;DHT22;10084;50.518;8.588;2024-02-21T06:23:20;8.90;88.30
19847;DHT22;10084;50.518;8.588;2024-02-21T06:25:46;8.90;88.30
19847;DHT22;10084;50.518;8.588;2024-02-21T06:28:13;8.90;88.30
19847;DHT22;10084;50.518;8.588;2024-02-21T06:30:40;8.90;88.90
19847;DHT22;10084;50.518;8.588;2024-02-21T06:33:06;8.90;88.20
19847;DHT22;10084;50.518;8.588;2024-02-21T06:35:33;8.90;88.20
19847;DHT22;10084;50.518;8.588;2024-02-21T06:37:59;8.90;88.10
19847;DHT22;10084;50.518;8.588;2024-02-21T06:40:25;8.90;87.30
19847;DHT22;10084;50.518;8.588;2024-02-21T06:42:50;9.00;87.20
19847;DHT22;10084;50.518;8.588;2024-02-21T06:45:16;9.00;87.10
19847;DHT22;10084;50.518;8.588;2024-02-21T06:47:43;9.00;87.10
19847;DHT22;10084;50.518;8.588;2024-02-21T06:50:09;9.00;87.00
19847;DHT22;10084;50.518;8.588;2024-02-21T06:52:38;9.00;86.90
19847;DHT22;10084;50.518;8.588;2024-02-21T06:55:04;9.10;86.90
19847;DHT22;10084;50.518;8.588;2024-02-21T06:57:30;9.00;86.90
19847;DHT22;10084;50.518;8.588;2024-02-21T06:59:55;9.10;87.00
19847;DHT22;10084;50.518;8.588;2024-02-21T07:02:21;9.10;87.00
19847;DHT22;10084;50.518;8.588;2024-02-21T07:04:47;9.10;87.00
19847;DHT22;10084;50.518;8.588;2024-02-21T07:07:12;9.10;87.00
19847;DHT22;10084;50.518;8.588;2024-02-21T07:09:38;9.10;87.00
19847;DHT22;10084;50.518;8.588;2024-02-21T07:12:04;9.10;87.20
19847;DHT22;10084;50.518;8.588;2024-02-21T07:14:32;9.10;87.20
19847;DHT22;10084;50.518;8.588;2024-02-21T07:16:58;9.20;87.20
19847;DHT22;10084;50.518;8.588;2024-02-21T07:19:24;9.20;87.00
19847;DHT22;10084;50.518;8.588;2024-02-21T07:21:49;9.20;87.00
19847;DHT22;10084;50.518;8.588;2024-02-21T07:24:15;9.20;86.90
19847;DHT22;10084;50.518;8.588;2024-02-21T07:26:41;9.20;86.80
19847;DHT22;10084;50.518;8.588;2024-02-21T07:29:08;9.20;86.70
19847;DHT22;10084;50.518;8.588;2024-02-21T07:31:44;9.30;86.80
19847;DHT22;10084;50.518;8.588;2024-02-21T07:34:10;9.30;86.60
19847;DHT22;10084;50.518;8.588;2024-02-21T07:36:36;9.30;86.50
19847;DHT22;10084;50.518;8.588;2024-02-21T07:39:03;9.20;86.40
19847;DHT22;10084;50.518;8.588;2024-02-21T07:41:30;9.20;86.40
19847;DHT22;10084;50.518;8.588;2024-02-21T07:43:56;9.20;86.40
19847;DHT22;10084;50.518;8.588;2024-02-21T07:46:22;9.20;86.50
19847;DHT22;10084;50.518;8.588;2024-02-21T07:48:48;9.20;86.50
19847;DHT22;10084;50.518;8.588;2024-02-21T07:51:13;9.20;86.40
19847;DHT22;10084;50.518;8.588;2024-02-21T07:53:39;9.20;86.40
19847;DHT22;10084;50.518;8.588;2024-02-21T07:56:14;9.20;86.40
19847;DHT22;10084;50.518;8.588;2024-02-21T07:58:40;9.20;86.30
19847;DHT22;10084;50.518;8.588;2024-02-21T08:01:06;9.20;86.30
19847;DHT22;10084;50.518;8.588;2024-02-21T08:03:32;9.20;86.20
19847;DHT22;10084;50.518;8.588;2024-02-21T08:05:57;9.20;86.20
19847;DHT22;10084;50.518;8.588;2024-02-21T08:08:23;9.20;86.30
19847;DHT22;10084;50.518;8.588;2024-02-21T08:10:50;9.30;86.30
19847;DHT22;10084;50.518;8.588;2024-02-21T08:13:16;9.30;86.30
19847;DHT22;10084;50.518;8.588;2024-02-21T08:15:42;9.30;86.20
19847;DHT22;10084;50.518;8.588;2024-02-21T08:18:08;9.30;86.20
19847;DHT22;10084;50.518;8.588;2024-02-21T08:20:33;9.40;86.30
19847;DHT22;10084;50.518;8.588;2024-02-21T08:22:59;9.40;86.20
19847;DHT22;10084;50.518;8.588;2024-02-21T08:25:25;9.40;86.20
19847;DHT22;10084;50.518;8.588;2024-02-21T08:27:51;9.50;86.40
19847;DHT22;10084;50.518;8.588;2024-02-21T08:30:17;9.50;86.30
19847;DHT22;10084;50.518;8.588;2024-02-21T08:32:43;9.60;86.20
19847;DHT22;10084;50.518;8.588;2024-02-21T08:35:09;9.60;86.10
19847;DHT22;10084;50.518;8.588;2024-02-21T08:37:35;9.60;86.00
19847;DHT22;10084;50.518;8.588;2024-02-21T08:40:00;9.60;86.10
19847;DHT22;10084;50.518;8.588;2024-02-21T08:42:35;9.70;86.10
19847;DHT22;10084;50.518;8.588;2024-02-21T08:45:02;9.80;85.90
19847;DHT22;10084;50.518;8.588;2024-02-21T08:47:27;9.80;85.90
19847;DHT22;10084;50.518;8.588;2024-02-21T08:49:53;9.90;86.00
19847;DHT22;10084;50.518;8.588;2024-02-21T08:52:19;9.90;86.00
19847;DHT22;10084;50.518;8.588;2024-02-21T08:54:44;10.00;85.90
19847;DHT22;10084;50.518;8.588;2024-02-21T08:57:10;10.20;87.50
19847;DHT22;10084;50.518;8.588;2024-02-21T08:59:36;10.30;87.40
19847;DHT22;10084;50.518;8.588;2024-02-21T09:02:01;10.40;86.90
19847;DHT22;10084;50.518;8.588;2024-02-21T09:04:29;10.40;86.80
19847;DHT22;10084;50.518;8.588;2024-02-21T09:06:54;10.50;86.80
19847;DHT22;10084;50.518;8.588;2024-02-21T09:09:20;10.60;86.70
19847;DHT22;10084;50.518;8.588;2024-02-21T09:11:46;10.60;86.60
19847;DHT22;10084;50.518;8.588;2024-02-21T09:14:12;10.70;86.40
19847;DHT22;10084;50.518;8.588;2024-02-21T09:16:37;10.70;86.20
19847;DHT22;10084;50.518;8.588;2024-02-21T09:19:03;10.70;86.20
19847;DHT22;10084;50.518;8.588;2024-02-21T09:21:29;10.80;86.10
19847;DHT22;10084;50.518;8.588;2024-02-21T09:23:55;10.80;85.80
19847;DHT22;10084;50.518;8.588;2024-02-21T09:26:21;10.80;86.70
19847;DHT22;10084;50.518;8.588;2024-02-21T09:28:47;10.90;86.70
19847;DHT22;10084;50.518;8.588;2024-02-21T09:31:12;11.00;86.50
19847;DHT22;10084;50.518;8.588;2024-02-21T09:33:39;11.10;86.50
19847;DHT22;10084;50.518;8.588;2024-02-21T09:36:05;11.10;86.30
19847;DHT22;10084;50.518;8.588;2024-02-21T09:38:31;11.20;86.00
19847;DHT22;10084;50.518;8.588;2024-02-21T09:41:08;11.20;85.80
19847;DHT22;10084;50.518;8.588;2024-02-21T09:43:38;11.10;85.60
19847;DHT22;10084;50.518;8.588;2024-02-21T09:46:05;11.00;85.50
19847;DHT22;10084;50.518;8.588;2024-02-21T09:51:09;10.80;85.20
19847;DHT22;10084;50.518;8.588;2024-02-21T09:53:37;10.70;85.40
19847;DHT22;10084;50.518;8.588;2024-02-21T09:56:05;10.70;85.40
19847;DHT22;10084;50.518;8.588;2024-02-21T09:58:33;10.60;85.20
19847;DHT22;10084;50.518;8.588;2024-02-21T10:00:59;10.60;85.40
19847;DHT22;10084;50.518;8.588;2024-02-21T10:03:26;10.50;85.40
19847;DHT22;10084;50.518;8.588;2024-02-21T10:05:51;10.50;85.50
19847;DHT22;10084;50.518;8.588;2024-02-21T10:08:18;10.60;85.30
19847;DHT22;10084;50.518;8.588;2024-02-21T10:10:45;10.70;85.30
19847;DHT22;10084;50.518;8.588;2024-02-21T10:13:24;10.70;85.20
19847;DHT22;10084;50.518;8.588;2024-02-21T10:16:00;10.70;85.00
19847;DHT22;10084;50.518;8.588;2024-02-21T10:18:26;10.80;85.10
19847;DHT22;10084;50.518;8.588;2024-02-21T10:21:05;10.90;85.00
19847;DHT22;10084;50.518;8.588;2024-02-21T10:24:01;10.90;84.80
19847;DHT22;10084;50.518;8.588;2024-02-21T10:26:27;11.00;84.80
19847;DHT22;10084;50.518;8.588;2024-02-21T10:28:52;11.10;85.10
19847;DHT22;10084;50.518;8.588;2024-02-21T10:31:28;11.20;85.30
19847;DHT22;10084;50.518;8.588;2024-02-21T10:33:56;11.50;85.30
19847;DHT22;10084;50.518;8.588;2024-02-21T10:36:22;11.70;85.00
19847;DHT22;10084;50.518;8.588;2024-02-21T10:38:47;12.00;84.70
19847;DHT22;10084;50.518;8.588;2024-02-21T10:41:19;12.20;84.40
19847;DHT22;10084;50.518;8.588;2024-02-21T10:43:52;12.30;83.90
19847;DHT22;10084;50.518;8.588;2024-02-21T10:46:22;12.50;83.90
19847;DHT22;10084;50.518;8.588;2024-02-21T10:49:01;12.60;83.40
19847;DHT22;10084;50.518;8.588;2024-02-21T10:51:33;12.60;83.00
19847;DHT22;10084;50.518;8.588;2024-02-21T10:54:33;12.70;83.20
19847;DHT22;10084;50.518;8.588;2024-02-21T10:57:04;13.00;83.30
19847;DHT22;10084;50.518;8.588;2024-02-21T10:59:32;13.30;82.60
19847;DHT22;10084;50.518;8.588;2024-02-21T11:01:58;13.40;82.20
19847;DHT22;10084;50.518;8.588;2024-02-21T11:04:24;13.60;82.00
19847;DHT22;10084;50.518;8.588;2024-02-21T11:06:51;13.70;82.10
19847;DHT22;10084;50.518;8.588;2024-02-21T11:09:17;13.80;81.50
19847;DHT22;10084;50.518;8.588;2024-02-21T11:11:44;13.90;81.40
19847;DHT22;10084;50.518;8.588;2024-02-21T11:14:11;13.90;81.20
19847;DHT22;10084;50.518;8.588;2024-02-21T11:16:43;14.10;81.60
19847;DHT22;10084;50.518;8.588;2024-02-21T11:19:18;14.30;81.00
19847;DHT22;10084;50.518;8.588;2024-02-21T11:21:44;14.40;80.50
19847;DHT22;10084;50.518;8.588;2024-02-21T11:24:10;14.50;80.30
19847;DHT22;10084;50.518;8.588;2024-02-21T11:26:37;14.40;80.00
19847;DHT22;10084;50.518;8.588;2024-02-21T11:29:03;14.40;80.20
19847;DHT22;10084;50.518;8.588;2024-02-21T11:31:41;14.30;80.00
19847;DHT22;10084;50.518;8.588;2024-02-21T11:34:13;14.10;80.10
19847;DHT22;10084;50.518;8.588;2024-02-21T11:36:49;14.00;80.20
19847;DHT22;10084;50.518;8.588;2024-02-21T11:39:24;13.80;80.00
19847;DHT22;10084;50.518;8.588;2024-02-21T11:42:03;13.60;79.90
19847;DHT22;10084;50.518;8.588;2024-02-21T11:44:30;13.40;80.20
19847;DHT22;10084;50.518;8.588;2024-02-21T11:46:56;13.30;80.40
19847;DHT22;10084;50.518;8.588;2024-02-21T11:49:25;13.30;80.60
19847;DHT22;10084;50.518;8.588;2024-02-21T11:51:58;13.30;80.40
19847;DHT22;10084;50.518;8.588;2024-02-21T11:54:24;13.30;80.00
19847;DHT22;10084;50.518;8.588;2024-02-21T11:56:50;13.30;79.60
19847;DHT22;10084;50.518;8.588;2024-02-21T11:59:17;13.10;79.20
19847;DHT22;10084;50.518;8.588;2024-02-21T12:01:43;13.10;80.30
19847;DHT22;10084;50.518;8.588;2024-02-21T12:04:10;13.20;79.60
19847;DHT22;10084;50.518;8.588;2024-02-21T12:06:36;13.20;80.10
19847;DHT22;10084;50.518;8.588;2024-02-21T12:09:01;13.20;79.00
19847;DHT22;10084;50.518;8.588;2024-02-21T12:11:27;13.10;79.20
19847;DHT22;10084;50.518;8.588;2024-02-21T12:14:03;13.20;79.40
19847;DHT22;10084;50.518;8.588;2024-02-21T12:16:33;13.30;79.60
19847;DHT22;10084;50.518;8.588;2024-02-21T12:19:03;13.40;79.40
19847;DHT22;10084;50.518;8.588;2024-02-21T12:21:33;13.40;79.20
19847;DHT22;10084;50.518;8.588;2024-02-21T12:26:47;13.30;78.80
19847;DHT22;10084;50.518;8.588;2024-02-21T12:29:13;13.20;78.70
19847;DHT22;10084;50.518;8.588;2024-02-21T12:31:39;13.20;78.70
19847;DHT22;10084;50.518;8.588;2024-02-21T12:34:05;13.10;78.60
19847;DHT22;10084;50.518;8.588;2024-02-21T12:36:32;13.20;78.80
19847;DHT22;10084;50.518;8.588;2024-02-21T12:38:58;13.30;78.70
19847;DHT22;10084;50.518;8.588;2024-02-21T12:41:24;13.40;78.40
19847;DHT22;10084;50.518;8.588;2024-02-21T12:43:51;13.60;78.30
19847;DHT22;10084;50.518;8.588;2024-02-21T12:46:16;13.70;78.20
19847;DHT22;10084;50.518;8.588;2024-02-21T12:48:42;13.80;77.70
19847;DHT22;10084;50.518;8.588;2024-02-21T12:51:08;13.70;77.50
19847;DHT22;10084;50.518;8.588;2024-02-21T12:53:34;13.70;77.50
19847;DHT22;10084;50.518;8.588;2024-02-21T12:56:00;13.50;77.70
19847;DHT22;10084;50.518;8.588;2024-02-21T12:58:26;13.30;77.80
19847;DHT22;10084;50.518;8.588;2024-02-21T13:00:52;13.20;78.00
19847;DHT22;10084;50.518;8.588;2024-02-21T13:03:18;13.10;78.10
19847;DHT22;10084;50.518;8.588;2024-02-21T13:05:44;13.10;78.10
19847;DHT22;10084;50.518;8.588;2024-02-21T13:08:10;13.00;78.30
19847;DHT22;10084;50.518;8.588;2024-02-21T13:10:37;12.90;78.20
19847;DHT22;10084;50.518;8.588;2024-02-21T13:13:03;12.80;78.10
19847;DHT22;10084;50.518;8.588;2024-02-21T13:15:29;12.70;78.00
19847;DHT22;10084;50.518;8.588;2024-02-21T13:17:58;12.60;77.90
19847;DHT22;10084;50.518;8.588;2024-02-21T13:20:25;12.50;77.90
19847;DHT22;10084;50.518;8.588;2024-02-21T13:22:52;12.40;77.90
19847;DHT22;10084;50.518;8.588;2024-02-21T13:25:18;12.30;78.00
19847;DHT22;10084;50.518;8.588;2024-02-21T13:27:47;12.30;78.30
19847;DHT22;10084;50.518;8.588;2024-02-21T13:30:13;12.30;78.30
19847;DHT22;10084;50.518;8.588;2024-02-21T13:32:42;12.20;78.30
19847;DHT22;10084;50.518;8.588;2024-02-21T13:35:08;12.20;78.20
19847;DHT22;10084;50.518;8.588;2024-02-21T13:37:37;12.10;78.10
19847;DHT22;10084;50.518;8.588;2024-02-21T13:40:04;12.10;78.10
19847;DHT22;10084;50.518;8.588;2024-02-21T13:42:30;12.00;78.10
19847;DHT22;10084;50.518;8.588;2024-02-21T13:44:56;12.00;78.30
19847;DHT22;10084;50.518;8.588;2024-02-21T13:47:22;12.00;78.20
19847;DHT22;10084;50.518;8.588;2024-02-21T13:49:48;12.00;78.10
19847;DHT22;10084;50.518;8.588;2024-02-21T13:52:13;12.00;78.10
19847;DHT22;10084;50.518;8.588;2024-02-21T13:54:40;12.10;78.00
19847;DHT22;10084;50.518;8.588;2024-02-21T13:57:06;12.10;77.90
19847;DHT22;10084;50.518;8.588;2024-02-21T13:59:31;12.20;77.90
19847;DHT22;10084;50.518;8.588;2024-02-21T14:01:59;12.20;77.80
19847;DHT22;10084;50.518;8.588;2024-02-21T14:04:25;12.20;77.80
19847;DHT22;10084;50.518;8.588;2024-02-21T14:06:51;12.20;77.40
19847;DHT22;10084;50.518;8.588;2024-02-21T14:09:18;12.20;77.30
19847;DHT22;10084;50.518;8.588;2024-02-21T14:11:44;12.10;77.10
19847;DHT22;10084;50.518;8.588;2024-02-21T14:14:10;12.10;77.20
19847;DHT22;10084;50.518;8.588;2024-02-21T14:16:36;12.10;77.10
19847;DHT22;10084;50.518;8.588;2024-02-21T14:19:02;12.10;77.50
19847;DHT22;10084;50.518;8.588;2024-02-21T14:21:28;12.10;77.30
19847;DHT22;10084;50.518;8.588;2024-02-21T14:23:54;12.10;77.30
19847;DHT22;10084;50.518;8.588;2024-02-21T14:26:22;12.10;77.30
19847;DHT22;10084;50.518;8.588;2024-02-21T14:28:48;12.10;77.40
19847;DHT22;10084;50.518;8.588;2024-02-21T14:31:13;12.10;77.40
19847;DHT22;10084;50.518;8.588;2024-02-21T14:33:39;12.00;77.40
19847;DHT22;10084;50.518;8.588;2024-02-21T14:36:05;12.00;77.20
19847;DHT22;10084;50.518;8.588;2024-02-21T14:38:33;12.00;77.20
19847;DHT22;10084;50.518;8.588;2024-02-21T14:40:58;12.00;77.30
19847;DHT22;10084;50.518;8.588;2024-02-21T14:43:24;12.00;77.30
19847;DHT22;10084;50.518;8.588;2024-02-21T14:45:51;12.00;77.40
19847;DHT22;10084;50.518;8.588;2024-02-21T14:48:17;12.00;77.30
19847;DHT22;10084;50.518;8.588;2024-02-21T14:50:43;12.00;77.30
19847;DHT22;10084;50.518;8.588;2024-02-21T14:53:08;12.00;77.30
19847;DHT22;10084;50.518;8.588;2024-02-21T14:55:35;11.90;77.60
19847;DHT22;10084;50.518;8.588;2024-02-21T14:58:00;11.90;77.70
19847;DHT22;10084;50.518;8.588;2024-02-21T15:00:27;11.80;77.90
19847;DHT22;10084;50.518;8.588;2024-02-21T15:02:59;11.70;78.10
19847;DHT22;10084;50.518;8.588;2024-02-21T15:05:25;11.60;78.20
19847;DHT22;10084;50.518;8.588;2024-02-21T15:07:51;11.50;78.30
19847;DHT22;10084;50.518;8.588;2024-02-21T15:10:17;11.50;78.40
19847;DHT22;10084;50.518;8.588;2024-02-21T15:12:47;11.40;78.60
19847;DHT22;10084;50.518;8.588;2024-02-21T15:15:13;11.30;78.70
19847;DHT22;10084;50.518;8.588;2024-02-21T15:17:39;11.20;78.90
19847;DHT22;10084;50.518;8.588;2024-02-21T15:20:05;11.10;79.10
19847;DHT22;10084;50.518;8.588;2024-02-21T15:22:33;11.10;79.30
19847;DHT22;10084;50.518;8.588;2024-02-21T15:24:59;11.00;79.40
19847;DHT22;10084;50.518;8.588;2024-02-21T15:27:31;11.00;79.50
19847;DHT22;10084;50.518;8.588;2024-02-21T15:29:57;11.00;79.70
19847;DHT22;10084;50.518;8.588;2024-02-21T15:32:23;10.90;79.70
19847;DHT22;10084;50.518;8.588;2024-02-21T15:34:49;10.90;80.00
19847;DHT22;10084;50.518;8.588;2024-02-21T15:37:15;10.80;80.10
19847;DHT22;10084;50.518;8.588;2024-02-21T15:39:43;10.80;80.20
19847;DHT22;10084;50.518;8.588;2024-02-21T15:42:09;10.80;80.40